createdAt,value
2019-04-26T00:17:20.612Z,41.40
2019-04-26T00:19:48.576Z,41.30
2019-04-26T00:22:22.946Z,41.00
2019-04-26T00:24:49.355Z,40.40
2019-04-26T00:27:16.925Z,39.90
2019-04-26T00:29:44.133Z,39.50
2019-04-26T00:32:11.867Z,39.20
2019-04-26T00:34:40.578Z,38.80
2019-04-26T00:37:07.514Z,38.70
2019-04-26T00:42:06.220Z,38.60
2019-04-26T00:44:34.801Z,38.50
2019-04-26T00:47:01.397Z,38.50
2019-04-26T00:57:05.066Z,38.50
2019-04-26T00:59:34.442Z,38.50
2019-04-26T01:04:33.498Z,38.40
2019-04-26T01:06:59.898Z,38.40
2019-04-26T01:09:28.208Z,38.40
2019-04-26T01:11:57.766Z,38.40
2019-04-26T01:14:27.334Z,38.50
2019-04-26T01:16:54.720Z,38.60
2019-04-26T01:24:28.805Z,38.60
2019-04-26T01:26:55.878Z,38.60
2019-04-26T01:29:25.747Z,38.70
2019-04-26T01:34:26.183Z,38.60
2019-04-26T01:39:25.800Z,38.70
2019-04-26T01:41:57.450Z,38.80
2019-04-26T01:44:24.681Z,38.80
2019-04-26T01:46:52.917Z,38.60
2019-04-26T01:49:20.877Z,38.50
2019-04-26T01:51:52.700Z,38.50
2019-04-26T01:54:22.651Z,38.50
2019-04-26T02:01:56.115Z,39.30
2019-04-26T02:04:27.807Z,38.60
2019-04-26T02:06:54.978Z,38.50
2019-04-26T02:09:22.998Z,38.50
2019-04-26T02:14:24.270Z,38.70
2019-04-26T02:16:49.768Z,38.70
2019-04-26T02:21:48.779Z,38.60
2019-04-26T02:26:51.461Z,38.60
2019-04-26T02:29:21.850Z,38.70
2019-04-26T02:31:48.529Z,38.60
2019-04-26T02:34:15.062Z,38.70
2019-04-26T02:36:57.198Z,38.70
2019-04-26T02:41:45.419Z,38.70
2019-04-26T02:44:11.940Z,38.70
2019-04-26T02:49:10.136Z,38.40
2019-04-26T02:54:09.809Z,38.50
2019-04-26T03:01:45.483Z,38.60
2019-04-26T03:07:01.680Z,38.50
2019-04-26T03:09:11.831Z,38.50
2019-04-26T03:11:39.226Z,38.70
2019-04-26T03:14:07.461Z,38.60
2019-04-26T03:16:41.509Z,38.50
2019-04-26T03:29:13.566Z,38.60
2019-04-26T03:31:52.025Z,38.40
2019-04-26T03:36:40.822Z,38.60
2019-04-26T03:39:05.046Z,38.40
2019-04-26T03:41:34.679Z,38.50
2019-04-26T03:44:01.214Z,38.40
2019-04-26T03:46:28.058Z,38.50
2019-04-26T03:48:57.577Z,38.40
2019-04-26T03:51:27.391Z,38.30
2019-04-26T03:53:53.843Z,38.40
2019-04-26T03:56:20.326Z,38.30
2019-04-26T03:58:46.734Z,38.40
2019-04-26T04:01:16.134Z,38.40
2019-04-26T04:03:46.178Z,38.40
2019-04-26T04:06:15.492Z,38.50
2019-04-26T04:08:47.633Z,38.40
2019-04-26T04:11:12.624Z,38.40
2019-04-26T04:16:12.443Z,38.50
2019-04-26T04:23:47.160Z,38.40
2019-04-26T04:26:15.406Z,38.50
2019-04-26T04:31:16.878Z,38.50
2019-04-26T04:33:46.945Z,38.80
2019-04-26T04:36:15.518Z,38.70
2019-04-26T04:41:15.744Z,38.60
2019-04-26T04:43:45.259Z,38.60
2019-04-26T04:51:12.967Z,38.70
2019-04-26T04:53:41.181Z,38.70
2019-04-26T04:56:06.757Z,38.80
2019-04-26T04:58:34.558Z,38.60
2019-04-26T05:01:01.114Z,38.70
2019-04-26T05:03:28.421Z,38.70
2019-04-26T05:06:06.861Z,39.60
2019-04-26T05:08:25.225Z,38.80
2019-04-26T05:15:58.032Z,38.80
2019-04-26T05:20:58.605Z,38.80
2019-04-26T05:23:25.152Z,38.90
2019-04-26T05:28:23.837Z,38.90
2019-04-26T05:33:24.617Z,39.00
2019-04-26T05:35:51.247Z,38.90
2019-04-26T05:38:18.489Z,38.90
2019-04-26T05:40:44.419Z,38.90
2019-04-26T05:43:11.614Z,38.90
2019-04-26T05:45:40.641Z,38.80
2019-04-26T05:48:11.554Z,38.80
2019-04-26T05:50:35.843Z,38.80
2019-04-26T05:53:03.192Z,38.90
2019-04-26T05:58:05.833Z,38.90
2019-04-26T06:00:33.518Z,38.80
2019-04-26T06:03:01.315Z,38.90
2019-04-26T06:05:27.276Z,39.10
2019-04-26T06:07:58.522Z,39.10
2019-04-26T06:13:03.472Z,39.10
2019-04-26T06:18:04.337Z,39.10
2019-04-26T06:30:45.532Z,39.10
2019-04-26T06:35:41.749Z,39.10
2019-04-26T06:43:15.630Z,39.20
2019-04-26T06:48:15.707Z,39.20
2019-04-26T06:50:43.383Z,39.30
2019-04-26T06:58:14.813Z,39.40
2019-04-26T07:00:42.181Z,39.30
2019-04-26T07:03:09.562Z,39.40
2019-04-26T07:05:39.675Z,39.30
2019-04-26T07:08:12.761Z,39.30
2019-04-26T07:10:39.037Z,39.30
2019-04-26T07:13:06.049Z,39.40
2019-04-26T07:15:34.857Z,39.40
2019-04-26T07:18:04.385Z,39.40
2019-04-26T07:23:05.900Z,39.40
2019-04-26T07:25:31.577Z,39.40
2019-04-26T07:30:33.565Z,39.50
2019-04-26T07:35:32.247Z,39.50
2019-04-26T07:38:04.838Z,39.50
2019-04-26T07:40:34.776Z,39.50
2019-04-26T07:43:03.215Z,39.50
2019-04-26T07:45:33.615Z,39.70
2019-04-26T07:50:32.116Z,39.80
2019-04-26T07:53:00.765Z,39.70
2019-04-26T07:55:29.547Z,39.60
2019-04-26T07:57:57.009Z,39.50
2019-04-26T08:02:58.638Z,39.50
2019-04-26T08:07:57.632Z,39.60
2019-04-26T08:12:55.765Z,39.70
2019-04-26T08:17:56.739Z,39.70
2019-04-26T08:20:28.095Z,39.60
2019-04-26T08:27:56.010Z,39.60
2019-04-26T08:30:24.281Z,39.50
2019-04-26T08:35:24.616Z,39.60
2019-04-26T08:50:34.668Z,39.60
2019-04-26T08:53:03.715Z,39.50
2019-04-26T08:55:30.999Z,39.70
2019-04-26T08:57:57.471Z,39.60
2019-04-26T09:00:25.914Z,39.70
2019-04-26T09:07:57.630Z,39.50
2019-04-26T09:12:59.534Z,39.60
2019-04-26T09:15:27.632Z,39.70
2019-04-26T09:17:57.587Z,39.60
2019-04-26T09:20:29.568Z,39.80
2019-04-26T09:22:51.705Z,39.70
2019-04-26T09:27:54.261Z,39.70
2019-04-26T09:30:33.299Z,39.70
2019-04-26T09:32:52.691Z,39.60
2019-04-26T09:35:22.424Z,39.60
2019-04-26T09:37:50.777Z,39.60
2019-04-26T09:45:28.602Z,39.50
2019-04-26T09:47:57.296Z,39.60
2019-04-26T09:50:25.129Z,39.60
2019-04-26T09:52:58.410Z,40.30
2019-04-26T09:55:35.089Z,39.60
2019-04-26T10:03:01.338Z,39.60
2019-04-26T10:05:33.878Z,39.60
2019-04-26T10:08:01.994Z,39.70
2019-04-26T10:10:31.043Z,39.60
2019-04-26T10:12:57.986Z,39.80
2019-04-26T10:15:28.045Z,39.60
2019-04-26T10:20:27.738Z,39.40
2019-04-26T10:22:57.722Z,39.60
2019-04-26T10:25:25.824Z,39.60
2019-04-26T10:27:52.303Z,40.00
2019-04-26T10:30:23.379Z,39.80
2019-04-26T10:32:52.638Z,39.70
2019-04-26T10:35:21.752Z,39.60
2019-04-26T10:40:20.219Z,39.60
2019-04-26T10:42:51.735Z,39.80
2019-04-26T10:47:51.932Z,39.70
2019-04-26T10:50:22.704Z,39.80
2019-04-26T10:52:54.392Z,39.90
2019-04-26T10:55:19.616Z,39.70
2019-04-26T10:57:51.763Z,39.70
2019-04-26T11:00:21.934Z,39.70
2019-04-26T11:05:20.485Z,39.70
2019-04-26T11:07:53.385Z,39.70
2019-04-26T11:10:18.443Z,39.60
2019-04-26T11:12:44.891Z,39.70
2019-04-26T11:17:46.059Z,39.60
2019-04-26T11:22:47.513Z,39.60
2019-04-26T11:35:21.418Z,39.70
2019-04-26T11:37:55.244Z,39.60
2019-04-26T11:40:20.092Z,39.70
2019-04-26T11:42:51.865Z,39.60
2019-04-26T11:45:22.473Z,39.60
2019-04-26T11:47:55.868Z,39.60
2019-04-26T11:52:50.070Z,39.60
2019-04-26T11:55:18.272Z,39.70
2019-04-26T12:00:20.338Z,39.60
2019-04-26T12:02:50.710Z,39.60
2019-04-26T12:05:19.642Z,39.60
2019-04-26T12:13:04.763Z,39.60
2019-04-26T12:17:58.648Z,39.70
2019-04-26T12:20:28.512Z,39.70
2019-04-26T12:22:59.665Z,39.70
2019-04-26T12:28:01.777Z,39.70
2019-04-26T12:30:28.414Z,39.70
2019-04-26T12:32:57.792Z,39.60
2019-04-26T12:37:58.706Z,39.60
2019-04-26T12:45:33.832Z,39.50
2019-04-26T12:50:36.788Z,39.60
2019-04-26T12:55:33.822Z,39.50
2019-04-26T13:00:37.631Z,39.50
2019-04-26T13:03:02.546Z,39.50
2019-04-26T13:05:33.816Z,39.50
2019-04-26T13:10:35.475Z,39.40
2019-04-26T13:18:02.969Z,39.40
2019-04-26T13:20:31.177Z,39.30
2019-04-26T13:25:40.159Z,39.30
2019-04-26T13:28:00.871Z,39.40
2019-04-26T13:30:33.127Z,39.40
2019-04-26T13:38:05.077Z,39.40
2019-04-26T13:40:34.046Z,39.40
2019-04-26T13:43:02.508Z,39.50
2019-04-26T13:45:35.370Z,39.40
2019-04-26T13:53:04.898Z,39.30
2019-04-26T13:55:33.782Z,39.30
2019-04-26T13:57:58.470Z,39.30
2019-04-26T14:02:59.129Z,39.40
2019-04-26T14:05:29.225Z,39.30
2019-04-26T14:07:57.601Z,39.30
2019-04-26T14:20:33.068Z,38.80
2019-04-26T14:23:00.633Z,39.30
2019-04-26T14:25:30.630Z,39.30
2019-04-26T14:30:28.064Z,39.30
2019-04-26T14:35:30.104Z,39.90
2019-04-26T14:37:56.545Z,39.30
2019-04-26T14:43:06.554Z,39.30
2019-04-26T14:45:24.159Z,39.20
2019-04-26T14:50:28.155Z,39.40
2019-04-26T14:53:02.376Z,39.30
2019-04-26T14:55:28.726Z,39.20
2019-04-26T14:57:58.096Z,39.20
2019-04-26T15:00:27.869Z,39.20
2019-04-26T15:02:56.233Z,39.00
2019-04-26T15:05:22.205Z,39.10
2019-04-26T15:07:53.299Z,39.00
2019-04-26T15:10:21.963Z,39.00
2019-04-26T15:12:58.655Z,38.90
2019-04-26T15:15:26.582Z,38.80
2019-04-26T15:20:28.001Z,38.80
2019-04-26T15:25:27.068Z,38.90
2019-04-26T15:27:53.515Z,38.90
2019-04-26T15:30:22.063Z,38.90
2019-04-26T15:32:52.919Z,39.00
2019-04-26T15:35:19.156Z,39.00
2019-04-26T15:37:45.576Z,38.80
2019-04-26T15:40:12.798Z,38.70
2019-04-26T15:42:38.664Z,38.70
2019-04-26T15:45:10.983Z,38.70
2019-04-26T15:47:42.163Z,38.60
2019-04-26T15:50:11.396Z,38.60
2019-04-26T15:55:10.482Z,38.90
2019-04-26T15:57:40.765Z,38.60
2019-04-26T16:00:07.258Z,38.70
2019-04-26T16:02:34.600Z,38.60
2019-04-26T16:05:02.564Z,38.60
2019-04-26T16:07:34.507Z,38.60
2019-04-26T16:10:04.672Z,38.60
2019-04-26T16:12:32.080Z,38.50
2019-04-26T16:15:06.651Z,38.60
2019-04-26T16:17:31.784Z,38.60
2019-04-26T16:22:33.936Z,38.60
2019-04-26T16:25:05.302Z,38.60
2019-04-26T16:27:34.604Z,38.60
2019-04-26T16:30:02.963Z,38.60
2019-04-26T16:35:02.811Z,38.60
2019-04-26T16:37:28.979Z,38.50
2019-04-26T16:39:58.066Z,38.50
2019-04-26T16:47:35.302Z,38.60
2019-04-26T16:50:04.655Z,38.50
2019-04-26T16:52:42.353Z,38.60
2019-04-26T16:55:05.116Z,38.60
2019-04-26T16:57:35.348Z,38.60
2019-04-26T17:00:04.977Z,38.60
2019-04-26T17:02:34.995Z,38.50
2019-04-26T17:05:16.817Z,38.50
2019-04-26T17:07:39.186Z,38.60
2019-04-26T17:12:33.240Z,38.60
2019-04-26T17:15:04.919Z,38.60
2019-04-26T17:17:34.607Z,38.60
2019-04-26T17:20:02.593Z,38.50
2019-04-26T17:22:41.932Z,38.60
2019-04-26T17:25:04.820Z,38.60
2019-04-26T17:27:33.425Z,38.60
2019-04-26T17:30:00.364Z,38.50
2019-04-26T17:35:06.012Z,38.50
2019-04-26T17:37:30.515Z,38.50
2019-04-26T17:39:57.246Z,38.50
2019-04-26T17:42:35.846Z,38.50
2019-04-26T17:44:57.500Z,38.50
2019-04-26T17:49:57.560Z,38.50
2019-04-26T17:52:23.331Z,38.60
2019-04-26T17:54:51.935Z,38.60
2019-04-26T17:57:31.417Z,38.70
2019-04-26T17:59:47.707Z,38.60
2019-04-26T18:02:20.579Z,38.60
2019-04-26T18:09:46.848Z,38.80
2019-04-26T18:12:12.949Z,38.70
2019-04-26T18:14:40.248Z,38.90
2019-04-26T18:17:07.737Z,38.80
2019-04-26T18:22:06.370Z,38.80
2019-04-26T18:32:18.792Z,39.50
2019-04-26T18:34:47.242Z,39.10
2019-04-26T18:39:47.566Z,39.10
2019-04-26T18:44:51.920Z,39.20
2019-04-26T18:47:20.963Z,39.10
2019-04-26T18:52:19.397Z,39.10
2019-04-26T18:57:25.769Z,39.10
2019-04-26T18:59:57.987Z,39.20
2019-04-26T19:07:34.168Z,39.30
2019-04-26T19:12:33.918Z,39.40
2019-04-26T19:15:07.417Z,39.40
2019-04-26T19:20:05.188Z,39.30
2019-04-26T19:22:37.470Z,39.40
2019-04-26T19:25:05.566Z,39.50
2019-04-26T19:27:34.185Z,39.40
2019-04-26T19:32:35.429Z,39.40
2019-04-26T19:35:07.026Z,39.50
2019-04-26T19:37:36.660Z,39.50
2019-04-26T19:40:02.935Z,39.60
2019-04-26T19:47:35.474Z,39.70
2019-04-26T19:50:03.219Z,39.70
2019-04-26T19:52:26.595Z,39.80
2019-04-26T19:54:58.090Z,39.70
2019-04-26T19:59:56.480Z,39.80
2019-04-26T20:02:35.863Z,39.80
2019-04-26T20:04:58.109Z,39.90
2019-04-26T20:10:02.618Z,40.00
2019-04-26T20:12:29.431Z,40.00
2019-04-26T20:14:58.271Z,40.00
2019-04-26T20:19:54.456Z,40.00
2019-04-26T20:22:28.532Z,40.00
2019-04-26T20:24:55.961Z,40.00
2019-04-26T20:29:53.044Z,40.10
2019-04-26T20:32:23.888Z,40.80
2019-04-26T20:34:52.292Z,40.10
2019-04-26T20:40:09.447Z,40.20
2019-04-26T20:42:22.380Z,40.20
2019-04-26T20:44:53.790Z,40.10
2019-04-26T20:47:21.584Z,40.10
2019-04-26T20:52:24.886Z,40.20
2019-04-26T20:54:54.078Z,40.20
2019-04-26T20:57:19.592Z,40.30
2019-04-26T20:59:47.031Z,40.30
2019-04-26T21:02:20.451Z,40.30
2019-04-26T21:07:15.065Z,40.20
2019-04-26T21:12:18.392Z,40.20
2019-04-26T21:14:49.082Z,40.30
2019-04-26T21:17:19.495Z,40.30
2019-04-26T21:19:49.937Z,40.30
2019-04-26T21:22:18.384Z,40.30
2019-04-26T21:24:44.373Z,40.30
2019-04-26T21:27:10.979Z,40.30
2019-04-26T21:32:09.702Z,40.20
2019-04-26T21:37:11.361Z,40.20
2019-04-26T21:47:13.520Z,40.30
2019-04-26T21:49:42.895Z,40.30
2019-04-26T21:52:10.130Z,40.30
2019-04-26T21:54:36.678Z,40.30
2019-04-26T21:57:03.789Z,40.30
2019-04-26T21:59:35.154Z,40.30
2019-04-26T22:01:59.157Z,40.20
2019-04-26T22:04:28.923Z,40.20
2019-04-26T22:09:28.499Z,40.10
2019-04-26T22:11:53.937Z,40.20
2019-04-26T22:16:53.405Z,40.20
2019-04-26T22:19:21.575Z,40.20
2019-04-26T22:26:53.233Z,40.10
2019-04-26T22:29:18.483Z,40.10
2019-04-26T22:31:45.960Z,40.10
2019-04-26T22:41:48.910Z,40.00
2019-04-26T22:54:28.123Z,40.10
2019-04-26T22:56:55.803Z,40.10
2019-04-26T22:59:23.874Z,40.10
2019-04-26T23:01:53.591Z,40.00
2019-04-26T23:04:23.606Z,39.90
2019-04-26T23:06:49.164Z,40.00
2019-04-26T23:17:04.088Z,39.90
2019-04-26T23:19:21.141Z,39.90
2019-04-26T23:21:55.857Z,39.80
2019-04-26T23:24:23.777Z,39.80
2019-04-26T23:26:54.099Z,39.90
2019-04-26T23:29:20.704Z,39.80
2019-04-26T23:31:48.550Z,39.90
2019-04-26T23:36:49.188Z,39.80
2019-04-26T23:41:53.788Z,39.80
2019-04-26T23:51:53.802Z,39.70
2019-04-26T23:54:21.009Z,39.90
2019-04-26T23:56:47.408Z,39.80
2019-04-26T23:59:20.716Z,39.70
